Smarr, Georgia
Current Conditions -  °F | °C
As of 8:35 PM on Thursday 27 Nov 2014 (Local Time) from KOPN Reporting Station
Clear Clear  
Wind Chill: 41°   Ceiling: Unl
Heat Index: 41°   Visibility: 10mi
Dew Point: 28°   Wind: 3mph
Humidity: 61%   Direction: 330°NNW
Pressure: 30.37"   Gusts: NA
Location:  32.99°N, 83.88°W
Report Text: KOPN 280135Z AUTO 33003KT 10SM CLR 05/M02 A3037 RMK AO2
Loading
Personal Weather Stations






























Interactive Weather Map New forecast layout! Learn more

10-Day Weather Forecast

Advertisements
Track Severe Weather on mobile